This is the latest recevied weather packets stored in our database for station/object K3MV-13. If no packets are shown the sender has not sent any weather packets the latest 1 day(s).
| Time | Temp. | Humidity | Pressure | Rain* | Wind** | Luminosity | Snow |
|---|---|---|---|---|---|---|---|
| 1778006496 | 23.33° C | 42% | 1009.9 hPa | 0 mm | 1.34 m/s, 249° | 776 W/m² | - |
| 1778006193 | 23.33° C | 43% | 1010 hPa | 0 mm | 2.24 m/s, 214° | 731 W/m² | - |
| 1778005891 | 23.89° C | 42% | 1009.9 hPa | 0 mm | 2.24 m/s, 257° | 445 W/m² | - |
| 1778005586 | 23.89° C | 42% | 1009.8 hPa | 0 mm | 2.68 m/s, 236° | 767 W/m² | - |
| 1778005284 | 23.33° C | 44% | 1010.2 hPa | 0 mm | 0.89 m/s, 274° | 832 W/m² | - |
| 1778004980 | 23.89° C | 44% | 1010.2 hPa | 0 mm | 0.89 m/s, 341° | 804 W/m² | - |
| 1778004678 | 23.33° C | 42% | 1010.1 hPa | 0 mm | 0.89 m/s, 207° | 653 W/m² | - |
| 1778004373 | 23.33° C | 42% | 1010 hPa | 0 mm | 2.24 m/s, 190° | 726 W/m² | - |
| 1778004071 | 23.33° C | 42% | 1010.1 hPa | 0 mm | 2.24 m/s, 240° | 723 W/m² | - |
| 1778003767 | 23.33° C | 42% | 1010.3 hPa | 0 mm | 1.79 m/s, 228° | 599 W/m² | - |
| 1778003464 | 23.33° C | 43% | 1009.9 hPa | 0 mm | 4.02 m/s, 202° | 659 W/m² | - |
| 1778003160 | 22.78° C | 44% | 1010.2 hPa | 0 mm | 1.34 m/s, 181° | 740 W/m² | - |
| 1778002856 | 23.33° C | 41% | 1010 hPa | 0 mm | 3.13 m/s, 219° | 725 W/m² | - |
| 1778002553 | 23.89° C | 44% | 1010.2 hPa | 0 mm | 1.79 m/s, 193° | 701 W/m² | - |
| 1778002250 | 23.33° C | 45% | 1010.1 hPa | 0 mm | 0.89 m/s, 256° | 732 W/m² | - |
| 1778001948 | 23.33° C | 45% | 1010.1 hPa | 0 mm | 1.34 m/s, 212° | 793 W/m² | - |
| 1778001645 | 22.78° C | 43% | 1010.3 hPa | 0 mm | 2.68 m/s, 191° | 839 W/m² | - |
| 1778001345 | 22.22° C | 43% | 1010 hPa | 0 mm | 2.68 m/s, 240° | 796 W/m² | - |
| 1778001042 | 22.78° C | 43% | 1010.1 hPa | 0 mm | 2.68 m/s, 196° | 510 W/m² | - |
| 1778000739 | 23.33° C | 46% | 1010.4 hPa | 0 mm | 0.45 m/s, 223° | 809 W/m² | - |
| 1778000435 | 22.78° C | 44% | 1010.4 hPa | 0 mm | 0.89 m/s, 178° | 793 W/m² | - |
| 1778000131 | 22.78° C | 44% | 1010.2 hPa | 0 mm | 1.34 m/s, 226° | 776 W/m² | - |
| 1777999826 | 22.78° C | 43% | 1010.5 hPa | 0 mm | 2.68 m/s, 222° | 799 W/m² | - |
| 1777999523 | 22.22° C | 44% | 1010.4 hPa | 0 mm | 1.34 m/s, 237° | 777 W/m² | - |
| 1777999221 | 22.78° C | 43% | 1010.5 hPa | 0 mm | 3.58 m/s, 166° | 466 W/m² | - |
* Rain latest hour (hover to see other rain measurements)
** Current wind speed in m/s (hover to see current wind gust speed)